sensor_id;sensor_type;location;lat;lon;timestamp;pressure;altitude;pressure_sealevel;temperature;humidity
37764;BME280;23602;51.084;7.090;2023-05-11T00:00:48;100117.69;;;11.42;100.00
37764;BME280;23602;51.084;7.090;2023-05-11T00:03:14;100117.47;;;11.44;100.00
37764;BME280;23602;51.084;7.090;2023-05-11T00:05:39;100120.16;;;11.44;100.00
37764;BME280;23602;51.084;7.090;2023-05-11T00:08:07;100120.16;;;11.44;100.00
37764;BME280;23602;51.084;7.090;2023-05-11T00:10:35;100123.47;;;11.46;100.00
37764;BME280;23602;51.084;7.090;2023-05-11T00:13:01;100125.34;;;11.46;100.00
37764;BME280;23602;51.084;7.090;2023-05-11T00:15:26;100127.19;;;11.45;100.00
37764;BME280;23602;51.084;7.090;2023-05-11T00:17:52;100129.06;;;11.44;100.00
37764;BME280;23602;51.084;7.090;2023-05-11T00:20:17;100130.50;;;11.47;100.00
37764;BME280;23602;51.084;7.090;2023-05-11T00:22:45;100129.66;;;11.47;100.00
37764;BME280;23602;51.084;7.090;2023-05-11T00:25:10;100123.47;;;11.46;100.00
37764;BME280;23602;51.084;7.090;2023-05-11T00:27:36;100135.88;;;11.47;100.00
37764;BME280;23602;51.084;7.090;2023-05-11T00:30:01;100127.81;;;11.47;100.00
37764;BME280;23602;51.084;7.090;2023-05-11T00:32:29;100129.66;;;11.47;100.00
37764;BME280;23602;51.084;7.090;2023-05-11T00:34:54;100131.13;;;11.49;100.00
37764;BME280;23602;51.084;7.090;2023-05-11T00:37:20;100136.06;;;11.52;100.00
37764;BME280;23602;51.084;7.090;2023-05-11T00:39:46;100136.69;;;11.54;100.00
37764;BME280;23602;51.084;7.090;2023-05-11T00:42:11;100136.06;;;11.52;100.00
37764;BME280;23602;51.084;7.090;2023-05-11T00:44:37;100133.34;;;11.52;100.00
37764;BME280;23602;51.084;7.090;2023-05-11T00:47:03;100135.84;;;11.54;100.00
37764;BME280;23602;51.084;7.090;2023-05-11T00:49:28;100133.75;;;11.56;100.00
37764;BME280;23602;51.084;7.090;2023-05-11T00:51:54;100131.72;;;11.51;100.00
37764;BME280;23602;51.084;7.090;2023-05-11T00:54:21;100133.75;;;11.56;100.00
37764;BME280;23602;51.084;7.090;2023-05-11T00:56:47;100139.75;;;11.58;100.00
37764;BME280;23602;51.084;7.090;2023-05-11T00:59:12;100144.94;;;11.59;100.00
37764;BME280;23602;51.084;7.090;2023-05-11T01:01:38;100147.34;;;11.67;100.00
37764;BME280;23602;51.084;7.090;2023-05-11T01:04:03;100149.06;;;11.62;100.00
37764;BME280;23602;51.084;7.090;2023-05-11T01:06:44;100151.53;;;11.63;100.00
37764;BME280;23602;51.084;7.090;2023-05-11T01:09:14;100152.34;;;11.64;100.00
37764;BME280;23602;51.084;7.090;2023-05-11T01:11:46;100158.56;;;11.64;100.00
37764;BME280;23602;51.084;7.090;2023-05-11T01:14:22;100155.06;;;11.64;100.00
37764;BME280;23602;51.084;7.090;2023-05-11T01:16:53;100161.03;;;11.66;100.00
37764;BME280;23602;51.084;7.090;2023-05-11T01:19:34;100156.91;;;11.63;100.00
37764;BME280;23602;51.084;7.090;2023-05-11T01:22:06;100154.22;;;11.63;100.00
37764;BME280;23602;51.084;7.090;2023-05-11T01:27:22;100159.00;;;11.61;100.00
37764;BME280;23602;51.084;7.090;2023-05-11T01:32:38;100162.06;;;11.65;100.00
37764;BME280;23602;51.084;7.090;2023-05-11T01:35:05;100158.78;;;11.63;100.00
37764;BME280;23602;51.084;7.090;2023-05-11T01:37:31;100155.47;;;11.61;100.00
37764;BME280;23602;51.084;7.090;2023-05-11T01:39:58;100161.47;;;11.63;100.00
37764;BME280;23602;51.084;7.090;2023-05-11T01:42:27;100166.00;;;11.62;100.00
37764;BME280;23602;51.084;7.090;2023-05-11T01:44:58;100160.63;;;11.62;100.00
37764;BME280;23602;51.084;7.090;2023-05-11T01:47:25;100158.78;;;11.63;100.00
37764;BME280;23602;51.084;7.090;2023-05-11T01:49:52;100149.25;;;11.60;100.00
37764;BME280;23602;51.084;7.090;2023-05-11T01:52:19;100152.78;;;11.61;100.00
37764;BME280;23602;51.084;7.090;2023-05-11T01:54:45;100157.94;;;11.62;100.00
37764;BME280;23602;51.084;7.090;2023-05-11T01:57:12;100154.44;;;11.62;100.00
37764;BME280;23602;51.084;7.090;2023-05-11T01:59:39;100153.38;;;11.63;100.00
37764;BME280;23602;51.084;7.090;2023-05-11T02:02:07;100146.97;;;11.64;100.00
37764;BME280;23602;51.084;7.090;2023-05-11T02:04:34;100144.94;;;11.59;100.00
37764;BME280;23602;51.084;7.090;2023-05-11T02:06:59;100138.31;;;11.55;100.00
37764;BME280;23602;51.084;7.090;2023-05-11T02:09:25;100137.72;;;11.53;100.00
37764;BME280;23602;51.084;7.090;2023-05-11T02:11:50;100135.03;;;11.53;100.00
37764;BME280;23602;51.084;7.090;2023-05-11T02:14:17;100135.03;;;11.53;100.00
37764;BME280;23602;51.084;7.090;2023-05-11T02:16:47;100133.59;;;11.51;100.00
37764;BME280;23602;51.084;7.090;2023-05-11T02:19:14;100129.22;;;11.50;100.00
37764;BME280;23602;51.084;7.090;2023-05-11T02:21:40;100125.94;;;11.48;100.00
37764;BME280;23602;51.084;7.090;2023-05-11T02:24:05;100126.38;;;11.44;100.00
37764;BME280;23602;51.084;7.090;2023-05-11T02:26:32;100126.78;;;11.41;100.00
37764;BME280;23602;51.084;7.090;2023-05-11T02:28:58;100129.09;;;11.38;100.00
37764;BME280;23602;51.084;7.090;2023-05-11T02:31:26;100126.00;;;11.34;100.00
37764;BME280;23602;51.084;7.090;2023-05-11T02:33:54;100113.44;;;11.28;100.00
37764;BME280;23602;51.084;7.090;2023-05-11T02:36:21;100124.38;;;11.27;100.00
37764;BME280;23602;51.084;7.090;2023-05-11T02:38:48;100119.00;;;11.27;100.00
37764;BME280;23602;51.084;7.090;2023-05-11T02:41:15;100121.69;;;11.27;100.00
37764;BME280;23602;51.084;7.090;2023-05-11T02:43:43;100120.06;;;11.26;100.00
37764;BME280;23602;51.084;7.090;2023-05-11T02:46:10;100115.72;;;11.25;100.00
37764;BME280;23602;51.084;7.090;2023-05-11T02:48:39;100121.75;;;11.20;100.00
37764;BME280;23602;51.084;7.090;2023-05-11T02:51:07;100127.31;;;11.19;100.00
37764;BME280;23602;51.084;7.090;2023-05-11T02:53:36;100126.72;;;11.17;100.00
37764;BME280;23602;51.084;7.090;2023-05-11T02:56:02;100128.97;;;11.20;100.00
37764;BME280;23602;51.084;7.090;2023-05-11T02:58:28;100131.69;;;11.20;100.00
37764;BME280;23602;51.084;7.090;2023-05-11T03:00:53;100138.91;;;11.19;100.00
37764;BME280;23602;51.084;7.090;2023-05-11T03:03:20;100131.25;;;11.16;100.00
37764;BME280;23602;51.084;7.090;2023-05-11T03:05:53;100135.84;;;11.16;100.00
37764;BME280;23602;51.084;7.090;2023-05-11T03:08:19;100143.06;;;11.15;100.00
37764;BME280;23602;51.084;7.090;2023-05-11T03:10:44;100141.81;;;11.18;100.00
37764;BME280;23602;51.084;7.090;2023-05-11T03:13:10;100137.47;;;11.17;100.00
37764;BME280;23602;51.084;7.090;2023-05-11T03:15:36;100141.00;;;11.17;100.00
37764;BME280;23602;51.084;7.090;2023-05-11T03:18:02;100133.94;;;11.16;100.00
37764;BME280;23602;51.084;7.090;2023-05-11T03:20:29;100138.31;;;11.17;100.00
37764;BME280;23602;51.084;7.090;2023-05-11T03:22:55;100137.28;;;11.18;100.00
37764;BME280;23602;51.084;7.090;2023-05-11T03:25:21;100139.75;;;11.20;100.00
37764;BME280;23602;51.084;7.090;2023-05-11T03:27:47;100142.19;;;11.21;100.00
37764;BME280;23602;51.084;7.090;2023-05-11T03:30:14;100142.44;;;11.20;100.00
37764;BME280;23602;51.084;7.090;2023-05-11T03:32:40;100133.34;;;11.21;100.00
37764;BME280;23602;51.084;7.090;2023-05-11T03:35:06;100132.28;;;11.22;100.00
37764;BME280;23602;51.084;7.090;2023-05-11T03:37:35;100136.63;;;11.23;100.00
37764;BME280;23602;51.084;7.090;2023-05-11T03:40:00;100140.16;;;11.23;100.00
37764;BME280;23602;51.084;7.090;2023-05-11T03:42:27;100134.38;;;11.20;100.00
37764;BME280;23602;51.084;7.090;2023-05-11T03:44:54;100138.50;;;11.22;100.00
37764;BME280;23602;51.084;7.090;2023-05-11T03:47:22;100135.56;;;11.24;100.00
37764;BME280;23602;51.084;7.090;2023-05-11T03:49:48;100128.56;;;11.23;100.00
37764;BME280;23602;51.084;7.090;2023-05-11T03:52:18;100131.84;;;11.25;100.00
37764;BME280;23602;51.084;7.090;2023-05-11T03:54:43;100131.44;;;11.21;100.00
37764;BME280;23602;51.084;7.090;2023-05-11T03:57:12;100131.06;;;11.18;100.00
37764;BME280;23602;51.084;7.090;2023-05-11T03:59:38;100136.63;;;11.16;100.00
37764;BME280;23602;51.084;7.090;2023-05-11T04:02:03;100140.59;;;11.14;100.00
37764;BME280;23602;51.084;7.090;2023-05-11T04:04:29;100146.59;;;11.16;100.00
37764;BME280;23602;51.084;7.090;2023-05-11T04:06:55;100149.91;;;11.18;100.00
37764;BME280;23602;51.084;7.090;2023-05-11T04:09:20;100149.47;;;11.21;100.00
37764;BME280;23602;51.084;7.090;2023-05-11T04:11:48;100141.41;;;11.21;100.00
37764;BME280;23602;51.084;7.090;2023-05-11T04:14:13;100150.50;;;11.20;100.00
37764;BME280;23602;51.084;7.090;2023-05-11T04:16:39;100144.69;;;11.23;100.00
37764;BME280;23602;51.084;7.090;2023-05-11T04:19:04;100149.03;;;11.24;100.00
37764;BME280;23602;51.084;7.090;2023-05-11T04:21:31;100146.34;;;11.24;100.00
37764;BME280;23602;51.084;7.090;2023-05-11T04:23:56;100151.50;;;11.25;100.00
37764;BME280;23602;51.084;7.090;2023-05-11T04:26:22;100149.66;;;11.26;100.00
37764;BME280;23602;51.084;7.090;2023-05-11T04:28:47;100155.66;;;11.28;100.00
37764;BME280;23602;51.084;7.090;2023-05-11T04:31:13;100149.22;;;11.29;100.00
37764;BME280;23602;51.084;7.090;2023-05-11T04:33:41;100151.09;;;11.28;100.00
37764;BME280;23602;51.084;7.090;2023-05-11T04:36:06;100150.25;;;11.28;100.00
37764;BME280;23602;51.084;7.090;2023-05-11T04:38:34;100155.41;;;11.29;100.00
37764;BME280;23602;51.084;7.090;2023-05-11T04:41:05;100156.03;;;11.31;100.00
37764;BME280;23602;51.084;7.090;2023-05-11T04:43:31;100160.78;;;11.36;100.00
37764;BME280;23602;51.084;7.090;2023-05-11T04:45:56;100162.84;;;11.34;100.00
37764;BME280;23602;51.084;7.090;2023-05-11T04:48:23;100169.66;;;11.36;100.00
37764;BME280;23602;51.084;7.090;2023-05-11T04:50:48;100163.47;;;11.36;100.00
37764;BME280;23602;51.084;7.090;2023-05-11T04:53:14;100177.72;;;11.36;100.00
37764;BME280;23602;51.084;7.090;2023-05-11T04:55:39;100172.34;;;11.36;100.00
37764;BME280;23602;51.084;7.090;2023-05-11T04:58:04;100171.09;;;11.39;100.00
37764;BME280;23602;51.084;7.090;2023-05-11T05:00:30;100172.75;;;11.40;100.00
37764;BME280;23602;51.084;7.090;2023-05-11T05:02:58;100183.28;;;11.41;100.00
37764;BME280;23602;51.084;7.090;2023-05-11T05:05:23;100189.31;;;11.43;100.00
37764;BME280;23602;51.084;7.090;2023-05-11T05:07:49;100183.72;;;11.45;100.00
37764;BME280;23602;51.084;7.090;2023-05-11T05:10:14;100191.34;;;11.48;100.00
37764;BME280;23602;51.084;7.090;2023-05-11T05:12:40;100184.94;;;11.49;100.00
37764;BME280;23602;51.084;7.090;2023-05-11T05:15:06;100192.56;;;11.52;100.00
37764;BME280;23602;51.084;7.090;2023-05-11T05:17:31;100193.41;;;11.53;100.00
37764;BME280;23602;51.084;7.090;2023-05-11T05:19:59;100199.63;;;11.53;100.00
37764;BME280;23602;51.084;7.090;2023-05-11T05:22:25;100198.75;;;11.59;100.00
37764;BME280;23602;51.084;7.090;2023-05-11T05:24:50;100207.44;;;11.61;100.00
37764;BME280;23602;51.084;7.090;2023-05-11T05:27:16;100209.50;;;11.66;100.00
37764;BME280;23602;51.084;7.090;2023-05-11T05:29:42;100213.66;;;11.68;100.00
37764;BME280;23602;51.084;7.090;2023-05-11T05:32:07;100214.84;;;11.72;100.00
37764;BME280;23602;51.084;7.090;2023-05-11T05:34:33;100214.22;;;11.77;100.00
37764;BME280;23602;51.084;7.090;2023-05-11T05:36:59;100216.28;;;11.81;100.00
37764;BME280;23602;51.084;7.090;2023-05-11T05:39:25;100213.59;;;11.81;100.00
37764;BME280;23602;51.084;7.090;2023-05-11T05:41:50;100220.59;;;11.82;100.00
37764;BME280;23602;51.084;7.090;2023-05-11T05:44:16;100221.22;;;11.84;100.00
37764;BME280;23602;51.084;7.090;2023-05-11T05:46:41;100223.94;;;11.84;100.00
37764;BME280;23602;51.084;7.090;2023-05-11T05:49:09;100228.06;;;11.87;100.00
37764;BME280;23602;51.084;7.090;2023-05-11T05:51:34;100227.00;;;11.88;100.00
37764;BME280;23602;51.084;7.090;2023-05-11T05:54:00;100225.97;;;11.89;100.00
37764;BME280;23602;51.084;7.090;2023-05-11T05:56:25;100227.59;;;11.90;100.00
37764;BME280;23602;51.084;7.090;2023-05-11T05:58:51;100228.44;;;11.90;100.00
37764;BME280;23602;51.084;7.090;2023-05-11T06:01:17;100230.28;;;11.90;100.00
37764;BME280;23602;51.084;7.090;2023-05-11T06:03:42;100231.53;;;11.94;100.00
37764;BME280;23602;51.084;7.090;2023-05-11T06:06:09;100235.06;;;11.94;100.00
37764;BME280;23602;51.084;7.090;2023-05-11T06:08:34;100231.28;;;11.95;100.00
37764;BME280;23602;51.084;7.090;2023-05-11T06:11:00;100237.28;;;11.97;100.00
37764;BME280;23602;51.084;7.090;2023-05-11T06:13:25;100237.09;;;11.99;100.00
37764;BME280;23602;51.084;7.090;2023-05-11T06:15:50;100237.09;;;11.99;100.00
37764;BME280;23602;51.084;7.090;2023-05-11T06:18:16;100232.72;;;11.98;100.00
37764;BME280;23602;51.084;7.090;2023-05-11T06:20:41;100236.66;;;12.02;100.00
37764;BME280;23602;51.084;7.090;2023-05-11T06:23:07;100230.22;;;12.03;100.00
37764;BME280;23602;51.084;7.090;2023-05-11T06:25:33;100228.75;;;12.07;100.00
37764;BME280;23602;51.084;7.090;2023-05-11T06:27:58;100228.69;;;12.14;100.00
37764;BME280;23602;51.084;7.090;2023-05-11T06:30:26;100226.59;;;12.16;100.00
37764;BME280;23602;51.084;7.090;2023-05-11T06:32:51;100223.47;;;12.19;100.00
37764;BME280;23602;51.084;7.090;2023-05-11T06:35:17;100220.78;;;12.19;100.00
37764;BME280;23602;51.084;7.090;2023-05-11T06:37:42;100216.66;;;12.16;100.00
37764;BME280;23602;51.084;7.090;2023-05-11T06:40:08;100219.16;;;12.18;100.00
37764;BME280;23602;51.084;7.090;2023-05-11T06:42:33;100214.97;;;12.22;100.00
37764;BME280;23602;51.084;7.090;2023-05-11T06:44:59;100208.91;;;12.26;100.00
37764;BME280;23602;51.084;7.090;2023-05-11T06:47:24;100211.13;;;12.36;100.00
37764;BME280;23602;51.084;7.090;2023-05-11T06:49:50;100214.78;;;12.48;100.00
37764;BME280;23602;51.084;7.090;2023-05-11T06:52:15;100213.22;;;12.58;100.00
37764;BME280;23602;51.084;7.090;2023-05-11T06:54:41;100206.66;;;12.73;100.00
37764;BME280;23602;51.084;7.090;2023-05-11T06:57:09;100202.78;;;12.87;100.00
37764;BME280;23602;51.084;7.090;2023-05-11T06:59:34;100203.47;;;13.00;100.00
37764;BME280;23602;51.084;7.090;2023-05-11T07:02:00;100196.38;;;13.06;100.00
37764;BME280;23602;51.084;7.090;2023-05-11T07:04:25;100194.53;;;13.06;100.00
37764;BME280;23602;51.084;7.090;2023-05-11T07:06:53;100179.78;;;13.02;100.00
37764;BME280;23602;51.084;7.090;2023-05-11T07:09:21;100162.19;;;13.00;100.00
37764;BME280;23602;51.084;7.090;2023-05-11T07:11:47;100140.91;;;12.92;100.00
37764;BME280;23602;51.084;7.090;2023-05-11T07:14:13;100138.19;;;12.92;100.00
37764;BME280;23602;51.084;7.090;2023-05-11T07:16:38;100123.69;;;12.93;100.00
37764;BME280;23602;51.084;7.090;2023-05-11T07:19:04;100120.16;;;12.92;100.00
37764;BME280;23602;51.084;7.090;2023-05-11T07:21:34;100122.78;;;12.99;100.00
37764;BME280;23602;51.084;7.090;2023-05-11T07:23:59;100129.13;;;13.04;100.00
37764;BME280;23602;51.084;7.090;2023-05-11T07:26:25;100135.31;;;13.11;100.00
37764;BME280;23602;51.084;7.090;2023-05-11T07:28:50;100139.28;;;13.27;100.00
37764;BME280;23602;51.084;7.090;2023-05-11T07:31:18;100141.16;;;13.56;100.00
37764;BME280;23602;51.084;7.090;2023-05-11T07:33:43;100138.91;;;13.83;100.00
37764;BME280;23602;51.084;7.090;2023-05-11T07:36:09;100126.25;;;13.95;100.00
37764;BME280;23602;51.084;7.090;2023-05-11T07:38:36;100123.47;;;14.13;100.00
37764;BME280;23602;51.084;7.090;2023-05-11T07:41:13;100112.09;;;14.34;100.00
37764;BME280;23602;51.084;7.090;2023-05-11T07:43:41;100106.72;;;14.46;100.00
37764;BME280;23602;51.084;7.090;2023-05-11T07:46:06;100090.34;;;14.52;100.00
37764;BME280;23602;51.084;7.090;2023-05-11T07:48:32;100088.34;;;14.60;100.00
37764;BME280;23602;51.084;7.090;2023-05-11T07:50:57;100073.53;;;14.74;100.00
37764;BME280;23602;51.084;7.090;2023-05-11T07:53:25;100073.47;;;14.85;100.00
37764;BME280;23602;51.084;7.090;2023-05-11T07:55:51;100070.56;;;14.87;100.00
37764;BME280;23602;51.084;7.090;2023-05-11T07:58:16;100058.44;;;14.78;100.00
37764;BME280;23602;51.084;7.090;2023-05-11T08:00:42;100043.97;;;14.84;100.00
37764;BME280;23602;51.084;7.090;2023-05-11T08:03:07;100040.63;;;15.05;100.00
37764;BME280;23602;51.084;7.090;2023-05-11T08:05:33;100051.03;;;15.13;100.00
37764;BME280;23602;51.084;7.090;2023-05-11T08:08:01;100063.78;;;15.12;100.00
37764;BME280;23602;51.084;7.090;2023-05-11T08:10:29;100039.31;;;15.07;100.00
37764;BME280;23602;51.084;7.090;2023-05-11T08:12:55;100042.31;;;15.23;100.00
37764;BME280;23602;51.084;7.090;2023-05-11T08:15:23;100006.03;;;14.95;100.00
37764;BME280;23602;51.084;7.090;2023-05-11T08:17:49;100019.75;;;15.05;100.00
37764;BME280;23602;51.084;7.090;2023-05-11T08:20:15;100038.81;;;15.10;100.00
37764;BME280;23602;51.084;7.090;2023-05-11T08:22:41;100046.03;;;15.05;100.00
37764;BME280;23602;51.084;7.090;2023-05-11T08:25:13;100041.59;;;14.87;100.00
37764;BME280;23602;51.084;7.090;2023-05-11T08:27:38;100056.56;;;14.78;100.00
37764;BME280;23602;51.084;7.090;2023-05-11T08:30:04;100063.91;;;14.66;100.00
37764;BME280;23602;51.084;7.090;2023-05-11T08:32:51;100073.78;;;14.61;100.00
37764;BME280;23602;51.084;7.090;2023-05-11T08:35:37;100079.06;;;14.55;100.00
37764;BME280;23602;51.084;7.090;2023-05-11T08:38:10;100078.59;;;14.59;100.00
37764;BME280;23602;51.084;7.090;2023-05-11T08:40:38;100074.03;;;14.59;100.00
37764;BME280;23602;51.084;7.090;2023-05-11T08:43:18;100080.59;;;14.63;100.00
37764;BME280;23602;51.084;7.090;2023-05-11T08:45:44;100083.75;;;14.72;100.00
37764;BME280;23602;51.084;7.090;2023-05-11T08:48:13;100081.28;;;14.82;100.00
37764;BME280;23602;51.084;7.090;2023-05-11T08:50:57;100079.94;;;14.96;100.00
37764;BME280;23602;51.084;7.090;2023-05-11T08:53:22;100048.13;;;15.03;100.00
37764;BME280;23602;51.084;7.090;2023-05-11T08:58:43;100043.84;;;15.47;100.00
37764;BME280;23602;51.084;7.090;2023-05-11T09:01:14;100038.41;;;15.75;100.00
37764;BME280;23602;51.084;7.090;2023-05-11T09:03:54;100013.19;;;15.74;100.00
37764;BME280;23602;51.084;7.090;2023-05-11T09:06:42;100012.50;;;15.84;100.00
37764;BME280;23602;51.084;7.090;2023-05-11T09:09:11;99997.41;;;15.88;100.00
37764;BME280;23602;51.084;7.090;2023-05-11T09:11:46;99987.72;;;16.09;100.00
37764;BME280;23602;51.084;7.090;2023-05-11T09:14:32;99988.16;;;16.22;100.00
37764;BME280;23602;51.084;7.090;2023-05-11T09:17:29;99975.69;;;16.21;100.00
37764;BME280;23602;51.084;7.090;2023-05-11T09:20:05;99978.91;;;16.18;100.00
37764;BME280;23602;51.084;7.090;2023-05-11T09:22:34;99993.97;;;16.09;100.00
37764;BME280;23602;51.084;7.090;2023-05-11T09:25:13;99994.56;;;15.78;100.00
37764;BME280;23602;51.084;7.090;2023-05-11T09:27:58;99986.84;;;15.53;100.00
37764;BME280;23602;51.084;7.090;2023-05-11T09:30:45;100002.50;;;15.51;100.00
37764;BME280;23602;51.084;7.090;2023-05-11T09:33:17;100014.63;;;15.49;100.00
37764;BME280;23602;51.084;7.090;2023-05-11T09:35:48;100007.78;;;15.58;100.00
37764;BME280;23602;51.084;7.090;2023-05-11T09:38:36;100013.50;;;15.61;100.00
37764;BME280;23602;51.084;7.090;2023-05-11T09:41:11;100005.53;;;15.71;100.00
37764;BME280;23602;51.084;7.090;2023-05-11T09:43:44;100005.00;;;15.86;100.00
37764;BME280;23602;51.084;7.090;2023-05-11T09:46:22;100000.22;;;15.93;100.00
37764;BME280;23602;51.084;7.090;2023-05-11T09:49:00;99983.69;;;15.95;100.00
37764;BME280;23602;51.084;7.090;2023-05-11T09:51:29;100002.81;;;16.05;100.00
37764;BME280;23602;51.084;7.090;2023-05-11T09:53:58;100006.13;;;16.07;100.00
37764;BME280;23602;51.084;7.090;2023-05-11T09:56:47;100009.81;;;16.01;100.00
37764;BME280;23602;51.084;7.090;2023-05-11T10:02:37;100009.00;;;15.84;100.00
37764;BME280;23602;51.084;7.090;2023-05-11T10:05:10;100016.53;;;15.81;100.00
37764;BME280;23602;51.084;7.090;2023-05-11T10:07:36;100008.25;;;15.71;100.00
37764;BME280;23602;51.084;7.090;2023-05-11T10:10:06;99981.44;;;15.53;100.00
37764;BME280;23602;51.084;7.090;2023-05-11T10:12:41;100005.28;;;15.56;100.00
37764;BME280;23602;51.084;7.090;2023-05-11T10:15:07;99994.75;;;15.43;100.00
37764;BME280;23602;51.084;7.090;2023-05-11T10:17:38;99994.06;;;15.48;100.00
37764;BME280;23602;51.084;7.090;2023-05-11T10:20:13;99996.28;;;15.51;100.00
37764;BME280;23602;51.084;7.090;2023-05-11T10:22:42;99996.38;;;15.56;100.00
37764;BME280;23602;51.084;7.090;2023-05-11T10:25:09;99984.22;;;15.58;100.00
37764;BME280;23602;51.084;7.090;2023-05-11T10:27:48;99981.59;;;15.63;100.00
37764;BME280;23602;51.084;7.090;2023-05-11T10:30:24;99971.38;;;15.37;100.00
37764;BME280;23602;51.084;7.090;2023-05-11T10:32:50;99975.78;;;15.43;100.00
37764;BME280;23602;51.084;7.090;2023-05-11T10:35:23;99978.53;;;15.60;100.00
37764;BME280;23602;51.084;7.090;2023-05-11T10:38:00;99985.94;;;15.64;100.00
37764;BME280;23602;51.084;7.090;2023-05-11T10:40:40;99965.56;;;15.78;100.00
37764;BME280;23602;51.084;7.090;2023-05-11T10:46:06;99982.78;;;16.06;100.00
37764;BME280;23602;51.084;7.090;2023-05-11T11:02:11;99961.56;;;16.41;100.00
37764;BME280;23602;51.084;7.090;2023-05-11T11:04:40;99956.97;;;16.41;100.00
37764;BME280;23602;51.084;7.090;2023-05-11T11:07:16;99955.16;;;16.47;100.00
37764;BME280;23602;51.084;7.090;2023-05-11T11:12:24;99949.88;;;16.57;100.00
37764;BME280;23602;51.084;7.090;2023-05-11T11:14:57;99952.38;;;16.64;100.00
37764;BME280;23602;51.084;7.090;2023-05-11T11:23:43;99958.97;;;16.94;100.00
37764;BME280;23602;51.084;7.090;2023-05-11T11:26:12;99944.69;;;17.04;100.00
37764;BME280;23602;51.084;7.090;2023-05-11T11:31:37;99938.38;;;16.98;100.00
37764;BME280;23602;51.084;7.090;2023-05-11T11:37:19;99956.53;;;16.93;100.00
37764;BME280;23602;51.084;7.090;2023-05-11T11:39:56;99951.91;;;16.93;100.00
37764;BME280;23602;51.084;7.090;2023-05-11T11:42:34;99944.13;;;16.75;100.00
37764;BME280;23602;51.084;7.090;2023-05-11T11:48:19;99942.31;;;16.42;100.00
37764;BME280;23602;51.084;7.090;2023-05-11T11:50:47;99939.94;;;16.46;100.00
37764;BME280;23602;51.084;7.090;2023-05-11T11:56:03;99944.41;;;16.35;100.00
37764;BME280;23602;51.084;7.090;2023-05-11T12:01:18;99948.16;;;16.29;100.00
37764;BME280;23602;51.084;7.090;2023-05-11T12:06:57;99955.19;;;16.30;100.00
37764;BME280;23602;51.084;7.090;2023-05-11T12:09:25;99949.97;;;16.24;100.00
37764;BME280;23602;51.084;7.090;2023-05-11T12:12:01;99945.22;;;16.14;100.00
37764;BME280;23602;51.084;7.090;2023-05-11T12:14:40;99941.75;;;16.19;100.00
37764;BME280;23602;51.084;7.090;2023-05-11T12:17:22;99940.50;;;16.26;100.00
37764;BME280;23602;51.084;7.090;2023-05-11T12:20:16;99939.53;;;16.37;100.00
37764;BME280;23602;51.084;7.090;2023-05-11T12:22:44;99937.97;;;16.41;100.00
37764;BME280;23602;51.084;7.090;2023-05-11T12:25:11;99934.19;;;16.42;100.00
37764;BME280;23602;51.084;7.090;2023-05-11T12:27:46;99941.19;;;16.38;100.00
37764;BME280;23602;51.084;7.090;2023-05-11T12:30:24;99940.13;;;16.39;100.00
37764;BME280;23602;51.084;7.090;2023-05-11T12:32:59;99931.59;;;16.31;100.00
37764;BME280;23602;51.084;7.090;2023-05-11T12:38:14;99950.97;;;16.18;100.00
37764;BME280;23602;51.084;7.090;2023-05-11T12:40:59;99933.56;;;16.14;100.00
37764;BME280;23602;51.084;7.090;2023-05-11T12:43:34;99934.59;;;16.29;100.00
37764;BME280;23602;51.084;7.090;2023-05-11T12:46:10;99928.91;;;16.53;100.00
37764;BME280;23602;51.084;7.090;2023-05-11T12:48:35;99929.78;;;16.58;100.00
37764;BME280;23602;51.084;7.090;2023-05-11T12:51:12;99927.84;;;16.75;100.00
37764;BME280;23602;51.084;7.090;2023-05-11T12:53:37;99923.31;;;16.86;100.00
37764;BME280;23602;51.084;7.090;2023-05-11T12:56:08;99919.81;;;16.85;100.00
37764;BME280;23602;51.084;7.090;2023-05-11T12:58:47;99911.72;;;16.90;100.00
37764;BME280;23602;51.084;7.090;2023-05-11T13:01:23;99907.94;;;16.96;100.00
37764;BME280;23602;51.084;7.090;2023-05-11T13:03:52;99898.00;;;17.07;100.00
37764;BME280;23602;51.084;7.090;2023-05-11T13:06:18;99905.38;;;17.12;100.00
37764;BME280;23602;51.084;7.090;2023-05-11T13:08:46;99902.97;;;17.15;100.00
37764;BME280;23602;51.084;7.090;2023-05-11T13:11:15;99892.28;;;17.03;100.00
37764;BME280;23602;51.084;7.090;2023-05-11T13:14:13;99897.69;;;17.03;100.00
37764;BME280;23602;51.084;7.090;2023-05-11T13:16:41;99891.66;;;16.96;100.00
37764;BME280;23602;51.084;7.090;2023-05-11T13:19:25;99891.94;;;16.95;100.00
37764;BME280;23602;51.084;7.090;2023-05-11T13:21:54;99888.31;;;16.84;100.00
37764;BME280;23602;51.084;7.090;2023-05-11T13:24:27;99890.34;;;16.72;100.00
37764;BME280;23602;51.084;7.090;2023-05-11T13:26:53;99892.47;;;16.65;100.00
37764;BME280;23602;51.084;7.090;2023-05-11T13:29:28;99894.63;;;16.68;100.00
37764;BME280;23602;51.084;7.090;2023-05-11T13:31:53;99904.44;;;16.69;100.00
37764;BME280;23602;51.084;7.090;2023-05-11T13:34:21;99901.97;;;16.68;100.00
37764;BME280;23602;51.084;7.090;2023-05-11T13:36:57;99912.69;;;16.58;100.00
37764;BME280;23602;51.084;7.090;2023-05-11T13:39:23;99897.19;;;16.53;100.00
37764;BME280;23602;51.084;7.090;2023-05-11T13:41:50;99905.50;;;16.47;100.00
37764;BME280;23602;51.084;7.090;2023-05-11T13:44:25;99901.84;;;16.36;100.00
37764;BME280;23602;51.084;7.090;2023-05-11T13:46:55;99902.66;;;16.36;100.00
37764;BME280;23602;51.084;7.090;2023-05-11T13:49:21;99898.56;;;16.34;100.00